createdAt,value
2019-05-22T00:01:00.207Z,16.90
2019-05-22T00:03:35.075Z,16.80
2019-05-22T00:06:04.585Z,16.90
2019-05-22T00:08:33.371Z,16.90
2019-05-22T00:11:04.280Z,16.90
2019-05-22T00:13:38.418Z,16.80
2019-05-22T00:16:08.383Z,16.90
2019-05-22T00:18:37.375Z,16.90
2019-05-22T00:21:07.533Z,17.00
2019-05-22T00:23:37.821Z,17.10
2019-05-22T00:26:06.979Z,17.00
2019-05-22T00:28:37.858Z,17.00
2019-05-22T00:31:06.442Z,17.00
2019-05-22T00:33:36.482Z,16.80
2019-05-22T00:36:06.078Z,16.80
2019-05-22T00:38:36.486Z,16.70
2019-05-22T00:41:09.467Z,16.60
2019-05-22T00:43:41.556Z,16.70
2019-05-22T00:46:11.797Z,16.70
2019-05-22T00:48:41.771Z,16.50
2019-05-22T00:51:21.640Z,16.50
2019-05-22T00:53:58.218Z,16.50
2019-05-22T00:56:56.690Z,16.60
2019-05-22T00:59:31.170Z,16.60
2019-05-22T01:02:04.091Z,16.50
2019-05-22T01:04:35.038Z,16.50
2019-05-22T01:07:07.882Z,16.70
2019-05-22T01:09:41.342Z,16.60
2019-05-22T01:12:16.937Z,16.50
2019-05-22T01:14:46.138Z,16.50
2019-05-22T01:17:15.135Z,16.60
2019-05-22T01:19:46.808Z,16.60
2019-05-22T01:22:17.271Z,16.50
2019-05-22T01:24:50.407Z,16.50
2019-05-22T01:27:20.358Z,16.50
2019-05-22T01:29:49.816Z,16.60
2019-05-22T01:32:33.969Z,16.50
2019-05-22T01:35:02.921Z,16.50
2019-05-22T01:37:31.237Z,16.30
2019-05-22T01:40:07.557Z,16.40
2019-05-22T01:42:41.229Z,16.30
2019-05-22T01:45:11.194Z,16.20
2019-05-22T01:47:46.308Z,16.30
2019-05-22T01:50:40.608Z,16.20
2019-05-22T01:53:10.999Z,16.40
2019-05-22T01:55:41.319Z,16.20
2019-05-22T01:58:12.126Z,16.30
2019-05-22T02:00:41.576Z,16.20
2019-05-22T02:03:30.859Z,16.20
2019-05-22T02:06:00.270Z,16.20
2019-05-22T02:08:29.985Z,16.10
2019-05-22T02:11:01.298Z,16.10
2019-05-22T02:13:35.354Z,16.10
2019-05-22T02:16:05.542Z,16.00
2019-05-22T02:18:35.603Z,16.10
2019-05-22T02:21:04.315Z,16.20
2019-05-22T02:23:33.026Z,16.10
2019-05-22T02:26:02.333Z,16.20
2019-05-22T02:28:30.736Z,16.40
2019-05-22T02:31:00.672Z,16.20
2019-05-22T02:33:31.611Z,16.30
2019-05-22T02:36:00.822Z,16.40
2019-05-22T02:38:29.388Z,16.30
2019-05-22T02:40:58.624Z,16.50
2019-05-22T02:43:28.400Z,16.70
2019-05-22T02:45:57.254Z,16.70
2019-05-22T02:48:27.551Z,16.60
2019-05-22T02:50:56.519Z,16.40
2019-05-22T02:53:26.044Z,16.50
2019-05-22T02:55:55.714Z,16.40
2019-05-22T02:58:24.921Z,16.30
2019-05-22T03:01:02.564Z,16.40
2019-05-22T03:03:31.656Z,16.40
2019-05-22T03:06:01.811Z,16.60
2019-05-22T03:08:54.104Z,16.60
2019-05-22T03:11:23.151Z,16.70
2019-05-22T03:14:01.224Z,16.70
2019-05-22T03:16:42.128Z,16.70
2019-05-22T03:19:14.931Z,16.50
2019-05-22T03:21:44.469Z,16.40
2019-05-22T03:24:12.575Z,16.40
2019-05-22T03:26:47.462Z,16.50
2019-05-22T03:29:16.180Z,16.50
2019-05-22T03:31:44.620Z,16.60
2019-05-22T03:34:13.800Z,16.70
2019-05-22T03:36:43.002Z,16.60
2019-05-22T03:39:12.108Z,16.60
2019-05-22T03:41:42.338Z,16.50
2019-05-22T03:44:12.080Z,16.70
2019-05-22T03:46:44.294Z,16.70
2019-05-22T03:49:29.223Z,16.60
2019-05-22T03:51:48.953Z,16.60
2019-05-22T03:54:19.090Z,16.60
2019-05-22T03:56:47.207Z,16.60
2019-05-22T03:59:15.810Z,16.60
2019-05-22T04:02:05.061Z,16.50
2019-05-22T04:04:36.163Z,16.50
2019-05-22T04:07:06.216Z,16.40
2019-05-22T04:09:34.693Z,16.30
2019-05-22T04:12:03.687Z,16.40
2019-05-22T04:14:37.263Z,16.40
2019-05-22T04:17:07.421Z,16.20
2019-05-22T04:19:48.369Z,16.20
2019-05-22T04:22:07.474Z,16.10
2019-05-22T04:24:35.725Z,16.10
2019-05-22T04:27:04.719Z,16.10
2019-05-22T04:29:33.086Z,16.20
2019-05-22T04:32:20.818Z,16.30
2019-05-22T04:34:51.857Z,16.70
2019-05-22T04:37:21.265Z,17.00
2019-05-22T04:39:54.462Z,17.10
2019-05-22T04:42:24.428Z,17.10
2019-05-22T04:45:18.268Z,17.10
2019-05-22T04:47:57.909Z,17.20
2019-05-22T04:50:27.123Z,17.20
2019-05-22T04:52:55.721Z,17.30
2019-05-22T04:55:23.923Z,17.30
2019-05-22T04:57:52.497Z,17.30
2019-05-22T05:00:21.307Z,17.60
2019-05-22T05:02:49.671Z,17.50
2019-05-22T05:05:19.282Z,17.40
2019-05-22T05:07:48.194Z,17.60
2019-05-22T05:10:16.750Z,17.70
2019-05-22T05:12:45.203Z,17.80
2019-05-22T05:15:14.602Z,18.00
2019-05-22T05:17:43.115Z,18.10
2019-05-22T05:20:21.961Z,18.20
2019-05-22T05:22:44.005Z,18.30
2019-05-22T05:25:13.113Z,18.40
2019-05-22T05:27:41.881Z,18.30
2019-05-22T05:30:11.014Z,18.30
2019-05-22T05:32:40.042Z,18.50
2019-05-22T05:35:09.260Z,18.60
2019-05-22T05:37:38.407Z,18.80
2019-05-22T05:40:39.256Z,18.60
2019-05-22T05:43:09.520Z,18.60
2019-05-22T05:45:39.679Z,19.00
2019-05-22T05:48:09.642Z,18.90
2019-05-22T05:50:40.565Z,19.10
2019-05-22T05:53:17.541Z,19.20
2019-05-22T05:56:15.985Z,19.10
2019-05-22T05:58:45.181Z,19.40
2019-05-22T06:01:33.897Z,19.40
2019-05-22T06:04:03.854Z,19.80
2019-05-22T06:07:17.166Z,19.70
2019-05-22T06:09:46.404Z,19.70
2019-05-22T06:12:16.290Z,19.60
2019-05-22T06:14:45.331Z,19.60
2019-05-22T06:17:51.330Z,19.90
2019-05-22T06:20:19.888Z,20.30
2019-05-22T06:23:44.490Z,20.60
2019-05-22T06:26:33.648Z,20.50
2019-05-22T06:29:02.017Z,20.30
2019-05-22T06:31:49.459Z,20.60
2019-05-22T06:34:17.748Z,21.10
2019-05-22T06:36:46.166Z,21.30
2019-05-22T06:39:15.545Z,21.20
2019-05-22T06:41:45.567Z,21.30
2019-05-22T06:44:42.269Z,21.30
2019-05-22T06:47:15.588Z,21.40
2019-05-22T06:49:48.608Z,21.50
2019-05-22T06:52:17.318Z,21.60
2019-05-22T06:54:45.568Z,21.50
2019-05-22T06:57:15.482Z,21.70
2019-05-22T06:59:45.008Z,21.90
2019-05-22T07:02:14.505Z,22.20
2019-05-22T07:04:43.739Z,22.30
2019-05-22T07:07:13.415Z,22.50
2019-05-22T07:09:43.029Z,22.50
2019-05-22T07:12:13.763Z,22.70
2019-05-22T07:15:43.701Z,22.70
2019-05-22T07:18:13.689Z,22.50
2019-05-22T07:20:43.220Z,22.60
2019-05-22T07:23:13.793Z,22.80
2019-05-22T07:25:44.381Z,23.10
2019-05-22T07:28:15.147Z,22.50
2019-05-22T07:30:44.018Z,22.70
2019-05-22T07:33:13.418Z,23.00
2019-05-22T07:36:04.479Z,23.50
2019-05-22T07:38:14.257Z,23.80
2019-05-22T07:40:43.467Z,24.10
2019-05-22T07:43:12.166Z,24.00
2019-05-22T07:45:40.726Z,23.80
2019-05-22T07:48:10.385Z,23.30
2019-05-22T07:50:41.640Z,23.60
2019-05-22T07:53:10.850Z,23.40
2019-05-22T07:55:40.309Z,23.50
2019-05-22T07:58:11.967Z,23.60
2019-05-22T08:00:44.894Z,23.80
2019-05-22T08:03:13.223Z,24.30
2019-05-22T08:05:44.746Z,24.30
2019-05-22T08:08:18.481Z,24.40
2019-05-22T08:10:45.532Z,24.10
2019-05-22T08:13:14.182Z,24.60
2019-05-22T08:15:42.537Z,25.30
2019-05-22T08:18:11.423Z,24.80
2019-05-22T08:20:40.014Z,25.10
2019-05-22T08:23:09.584Z,25.40
2019-05-22T08:25:38.876Z,25.10
2019-05-22T08:28:07.713Z,24.90
2019-05-22T08:30:35.882Z,24.90
2019-05-22T08:33:08.951Z,24.70
2019-05-22T08:35:37.308Z,25.20
2019-05-22T08:38:09.437Z,25.90
2019-05-22T08:40:38.953Z,25.60
2019-05-22T08:43:07.518Z,25.30
2019-05-22T08:45:37.002Z,25.40
2019-05-22T08:48:06.324Z,25.60
2019-05-22T08:50:36.483Z,26.30
2019-05-22T08:53:05.714Z,25.70
2019-05-22T08:55:35.703Z,24.90
2019-05-22T08:58:05.297Z,24.70
2019-05-22T09:00:34.212Z,25.00
2019-05-22T09:03:02.954Z,25.50
2019-05-22T09:05:31.952Z,25.90
2019-05-22T09:08:00.690Z,26.10
2019-05-22T09:10:29.216Z,25.40
2019-05-22T09:12:57.559Z,25.80
2019-05-22T09:15:26.022Z,26.20
2019-05-22T09:17:54.775Z,26.60
2019-05-22T09:20:23.414Z,26.20
2019-05-22T09:22:52.561Z,25.80
2019-05-22T09:25:21.206Z,26.50
2019-05-22T09:27:49.952Z,26.80
2019-05-22T09:30:19.127Z,26.70
2019-05-22T09:32:47.749Z,26.40
2019-05-22T09:35:16.112Z,26.40
2019-05-22T09:37:44.218Z,26.40
2019-05-22T09:40:12.754Z,26.50
2019-05-22T09:42:40.963Z,26.60
2019-05-22T09:45:09.450Z,26.70
2019-05-22T09:47:38.947Z,26.20
2019-05-22T09:50:08.062Z,26.80
2019-05-22T09:52:36.742Z,27.00
2019-05-22T09:55:05.683Z,27.10
2019-05-22T09:57:35.550Z,27.20
2019-05-22T10:00:06.227Z,27.00
2019-05-22T10:02:35.864Z,27.30
2019-05-22T10:05:06.110Z,26.80
2019-05-22T10:07:34.999Z,26.70
2019-05-22T10:10:03.821Z,26.90
2019-05-22T10:12:32.448Z,27.10
2019-05-22T10:15:01.582Z,27.30
2019-05-22T10:17:30.508Z,27.60
2019-05-22T10:19:59.431Z,27.50
2019-05-22T10:22:31.778Z,27.40
2019-05-22T10:25:14.797Z,27.10
2019-05-22T10:27:31.007Z,26.80
2019-05-22T10:29:59.411Z,26.60
2019-05-22T10:32:32.171Z,26.40
2019-05-22T10:34:59.854Z,26.20
2019-05-22T10:37:28.305Z,26.10
2019-05-22T10:39:57.126Z,26.10
2019-05-22T10:42:25.269Z,26.50
2019-05-22T10:44:53.371Z,26.90
2019-05-22T10:47:21.769Z,26.40
2019-05-22T10:49:50.768Z,26.50
2019-05-22T10:52:19.408Z,26.50
2019-05-22T10:54:47.538Z,26.70
2019-05-22T10:57:16.448Z,26.70
2019-05-22T10:59:44.864Z,27.10
2019-05-22T11:02:13.698Z,27.60
2019-05-22T11:04:42.403Z,27.10
2019-05-22T11:07:11.511Z,27.30
2019-05-22T11:09:39.824Z,27.80
2019-05-22T11:12:08.258Z,27.80
2019-05-22T11:14:36.529Z,27.30
2019-05-22T11:17:04.884Z,27.40
2019-05-22T11:19:33.235Z,27.40
2019-05-22T11:22:01.829Z,27.60
2019-05-22T11:24:30.199Z,28.10
2019-05-22T11:26:59.028Z,27.10
2019-05-22T11:29:27.331Z,27.00
2019-05-22T11:31:55.935Z,26.70
2019-05-22T11:34:24.410Z,27.00
2019-05-22T11:36:52.982Z,27.70
2019-05-22T11:39:37.972Z,27.60
2019-05-22T11:41:53.614Z,27.40
2019-05-22T11:44:21.618Z,27.00
2019-05-22T11:46:50.249Z,27.80
2019-05-22T11:49:18.459Z,27.70
2019-05-22T11:51:46.643Z,27.30
2019-05-22T11:54:15.055Z,27.50
2019-05-22T11:56:43.470Z,27.90
2019-05-22T11:59:12.570Z,28.50
2019-05-22T12:01:40.923Z,28.30
2019-05-22T12:04:10.782Z,28.70
2019-05-22T12:06:40.264Z,29.00
2019-05-22T12:09:09.415Z,28.70
2019-05-22T12:11:38.254Z,28.80
2019-05-22T12:14:08.251Z,28.30
2019-05-22T12:16:37.942Z,27.30
2019-05-22T12:19:07.459Z,26.60
2019-05-22T12:21:35.648Z,26.10
2019-05-22T12:24:04.163Z,25.80
2019-05-22T12:26:33.122Z,26.70
2019-05-22T12:29:01.408Z,26.10
2019-05-22T12:31:30.436Z,26.90
2019-05-22T12:33:59.878Z,27.00
2019-05-22T12:36:28.198Z,27.40
2019-05-22T12:38:56.610Z,27.00
2019-05-22T12:41:25.878Z,26.00
2019-05-22T12:43:54.647Z,26.00
2019-05-22T12:46:23.756Z,25.30
2019-05-22T12:48:52.837Z,25.10
2019-05-22T12:51:21.308Z,25.10
2019-05-22T12:53:50.297Z,25.80
2019-05-22T12:56:19.094Z,25.60
2019-05-22T12:58:47.382Z,26.30
2019-05-22T13:01:16.813Z,26.50
2019-05-22T13:03:46.382Z,26.70
2019-05-22T13:06:15.155Z,26.90
2019-05-22T13:08:43.623Z,26.00
2019-05-22T13:11:12.309Z,25.20
2019-05-22T13:13:40.803Z,25.70
2019-05-22T13:16:10.150Z,26.20
2019-05-22T13:18:39.326Z,26.40
2019-05-22T13:21:11.995Z,26.50
2019-05-22T13:23:43.116Z,26.40
2019-05-22T13:26:11.401Z,25.60
2019-05-22T13:28:43.799Z,25.10
2019-05-22T13:31:12.073Z,25.60
2019-05-22T13:33:43.102Z,25.70
2019-05-22T13:36:12.443Z,26.00
2019-05-22T13:38:40.694Z,26.20
2019-05-22T13:41:10.075Z,26.40
2019-05-22T13:43:38.292Z,26.40
2019-05-22T13:46:06.743Z,26.10
2019-05-22T13:48:35.210Z,26.00
2019-05-22T13:51:04.721Z,26.10
2019-05-22T13:53:33.731Z,25.40
2019-05-22T13:56:02.911Z,25.90
2019-05-22T13:58:32.600Z,26.10
2019-05-22T14:01:00.992Z,25.40
2019-05-22T14:03:29.367Z,25.50
2019-05-22T14:05:57.615Z,25.60
2019-05-22T14:08:25.913Z,25.90
2019-05-22T14:10:54.683Z,25.70
2019-05-22T14:13:25.099Z,26.10
2019-05-22T14:15:57.000Z,26.10
2019-05-22T14:18:23.705Z,26.00
2019-05-22T14:20:51.931Z,26.00
2019-05-22T14:23:20.474Z,25.90
2019-05-22T14:25:49.448Z,25.90
2019-05-22T14:28:18.680Z,25.60
2019-05-22T14:30:46.945Z,25.80
2019-05-22T14:33:15.203Z,25.70
2019-05-22T14:35:48.668Z,25.50
2019-05-22T14:38:15.028Z,25.60
2019-05-22T14:40:43.556Z,25.80
2019-05-22T14:43:11.931Z,25.60
2019-05-22T14:45:41.311Z,25.70
2019-05-22T14:48:10.892Z,25.50
2019-05-22T14:50:39.216Z,25.70
2019-05-22T14:53:07.364Z,25.90
2019-05-22T14:55:36.576Z,25.50
2019-05-22T14:58:05.403Z,25.80
2019-05-22T15:00:33.867Z,25.70
2019-05-22T15:03:03.325Z,25.70
2019-05-22T15:05:32.043Z,25.60
2019-05-22T15:08:00.158Z,25.60
2019-05-22T15:10:28.895Z,25.20
2019-05-22T15:12:57.103Z,25.10
2019-05-22T15:15:25.635Z,24.10
2019-05-22T15:17:54.271Z,24.10
2019-05-22T15:20:27.176Z,24.50
2019-05-22T15:22:56.624Z,24.20
2019-05-22T15:25:25.698Z,24.40
2019-05-22T15:27:54.125Z,24.40
2019-05-22T15:30:22.732Z,24.80
2019-05-22T15:32:51.345Z,24.90
2019-05-22T15:35:20.456Z,24.30
2019-05-22T15:37:48.851Z,24.40
2019-05-22T15:40:17.821Z,24.40
2019-05-22T15:42:46.333Z,24.50
2019-05-22T15:45:17.722Z,24.40
2019-05-22T15:47:54.818Z,23.50
2019-05-22T15:50:20.651Z,23.50
2019-05-22T15:52:54.115Z,24.00
2019-05-22T15:55:25.465Z,24.10
2019-05-22T15:57:57.109Z,24.60
2019-05-22T16:00:30.001Z,23.70
2019-05-22T16:02:58.688Z,23.20
2019-05-22T16:05:28.506Z,23.20
2019-05-22T16:07:56.956Z,23.30
2019-05-22T16:10:25.748Z,23.50
2019-05-22T16:12:55.631Z,24.00
2019-05-22T16:15:26.379Z,23.80
2019-05-22T16:18:10.479Z,24.00
2019-05-22T16:20:26.765Z,23.80
2019-05-22T16:22:56.402Z,23.80
2019-05-22T16:25:25.767Z,24.00
2019-05-22T16:27:54.499Z,24.20
2019-05-22T16:30:25.470Z,24.20
2019-05-22T16:32:56.003Z,23.60
2019-05-22T16:35:25.763Z,22.80
2019-05-22T16:37:56.144Z,22.60
2019-05-22T16:40:25.326Z,22.70
2019-05-22T16:42:54.697Z,22.80
2019-05-22T16:45:24.240Z,23.10
2019-05-22T16:47:52.751Z,23.30
2019-05-22T16:50:23.474Z,23.60
2019-05-22T16:52:53.636Z,23.80
2019-05-22T16:55:23.023Z,23.40
2019-05-22T16:57:51.290Z,23.60
2019-05-22T17:00:19.596Z,23.50
2019-05-22T17:02:48.658Z,22.70
2019-05-22T17:05:19.161Z,22.80
2019-05-22T17:07:48.297Z,23.20
2019-05-22T17:10:17.908Z,23.40
2019-05-22T17:12:47.717Z,23.40
2019-05-22T17:15:17.190Z,23.50
2019-05-22T17:17:45.800Z,23.50
2019-05-22T17:20:17.705Z,23.40
2019-05-22T17:22:46.863Z,23.40
2019-05-22T17:25:18.165Z,23.10
2019-05-22T17:27:46.485Z,23.10
2019-05-22T17:30:20.682Z,23.00
2019-05-22T17:32:47.330Z,23.00
2019-05-22T17:35:16.620Z,22.90
2019-05-22T17:37:45.589Z,22.30
2019-05-22T17:40:16.586Z,22.40
2019-05-22T17:42:46.570Z,22.20
2019-05-22T17:45:17.433Z,21.70
2019-05-22T17:47:46.065Z,21.80
2019-05-22T17:50:26.105Z,21.40
2019-05-22T17:52:48.331Z,20.60
2019-05-22T17:55:19.675Z,20.70
2019-05-22T17:57:47.892Z,21.00
2019-05-22T18:00:24.388Z,21.00
2019-05-22T18:02:52.859Z,21.20
2019-05-22T18:05:21.594Z,21.10
2019-05-22T18:07:50.263Z,21.00
2019-05-22T18:10:19.082Z,21.40
2019-05-22T18:12:47.160Z,21.40
2019-05-22T18:15:16.310Z,21.60
2019-05-22T18:17:44.968Z,21.60
2019-05-22T18:20:14.299Z,21.60
2019-05-22T18:22:42.793Z,21.80
2019-05-22T18:25:11.853Z,21.90
2019-05-22T18:27:40.308Z,21.90
2019-05-22T18:30:09.237Z,21.60
2019-05-22T18:32:41.179Z,21.50
2019-05-22T18:35:10.053Z,21.40
2019-05-22T18:37:39.179Z,21.60
2019-05-22T18:40:09.608Z,21.00
2019-05-22T18:42:37.885Z,21.20
2019-05-22T18:45:06.687Z,21.20
2019-05-22T18:47:35.218Z,21.50
2019-05-22T18:50:03.916Z,21.50
2019-05-22T18:52:40.611Z,21.50
2019-05-22T18:55:20.646Z,20.70
2019-05-22T18:57:49.198Z,20.50
2019-05-22T19:00:21.082Z,20.30
2019-05-22T19:02:49.355Z,20.50
2019-05-22T19:05:21.283Z,21.00
2019-05-22T19:07:49.409Z,21.30
2019-05-22T19:10:19.075Z,21.50
2019-05-22T19:12:47.949Z,21.60
2019-05-22T19:15:16.549Z,21.70
2019-05-22T19:17:44.861Z,21.60
2019-05-22T19:20:13.280Z,21.70
2019-05-22T19:22:58.051Z,21.70
2019-05-22T19:25:12.477Z,21.80
2019-05-22T19:27:41.379Z,21.70
2019-05-22T19:30:09.986Z,21.70
2019-05-22T19:32:38.409Z,21.70
2019-05-22T19:35:08.376Z,21.70
2019-05-22T19:37:36.628Z,21.70
2019-05-22T19:40:07.515Z,21.70
2019-05-22T19:42:36.086Z,21.10
2019-05-22T19:45:05.126Z,21.00
2019-05-22T19:47:33.776Z,21.20
2019-05-22T19:50:02.687Z,21.30
2019-05-22T19:52:41.393Z,21.40
2019-05-22T19:55:07.148Z,21.50
2019-05-22T19:57:35.606Z,21.50
2019-05-22T20:00:05.446Z,21.40
2019-05-22T20:02:33.971Z,21.20
2019-05-22T20:05:02.610Z,21.20
2019-05-22T20:07:31.699Z,21.30
2019-05-22T20:10:00.846Z,21.30
2019-05-22T20:12:29.763Z,21.30
2019-05-22T20:14:58.424Z,21.20
2019-05-22T20:17:27.492Z,21.30
2019-05-22T20:19:55.747Z,21.20
2019-05-22T20:22:23.882Z,21.10
2019-05-22T20:24:52.600Z,21.10
2019-05-22T20:27:21.143Z,21.20
2019-05-22T20:29:50.087Z,21.20
2019-05-22T20:32:18.499Z,21.10
2019-05-22T20:34:48.061Z,21.10
2019-05-22T20:37:16.281Z,21.10
2019-05-22T20:39:45.737Z,21.00
2019-05-22T20:42:14.497Z,20.80
2019-05-22T20:44:43.557Z,20.60
2019-05-22T20:47:13.710Z,20.50
2019-05-22T20:49:43.679Z,20.30
2019-05-22T20:52:14.074Z,20.10
2019-05-22T20:54:42.884Z,20.10
2019-05-22T20:57:12.446Z,20.10
2019-05-22T20:59:41.706Z,20.10
2019-05-22T21:02:11.993Z,20.20
2019-05-22T21:04:43.461Z,20.20
2019-05-22T21:07:13.948Z,20.10
2019-05-22T21:09:44.774Z,20.10
2019-05-22T21:12:13.901Z,19.90
2019-05-22T21:14:42.324Z,19.90
2019-05-22T21:17:10.721Z,19.90
2019-05-22T21:19:39.626Z,19.80
2019-05-22T21:22:09.963Z,19.90
2019-05-22T21:24:39.366Z,19.90
2019-05-22T21:27:08.869Z,19.90
2019-05-22T21:29:43.314Z,19.80
2019-05-22T21:32:13.608Z,19.90
2019-05-22T21:34:43.207Z,19.90
2019-05-22T21:37:12.353Z,20.00
2019-05-22T21:39:41.056Z,19.80
2019-05-22T21:42:09.662Z,19.70
2019-05-22T21:44:37.858Z,19.70
2019-05-22T21:47:07.042Z,19.80
2019-05-22T21:49:38.697Z,19.90
2019-05-22T21:52:08.207Z,19.80
2019-05-22T21:54:36.900Z,19.70
2019-05-22T21:57:05.443Z,19.80
2019-05-22T21:59:34.153Z,20.00
2019-05-22T22:02:12.807Z,20.00
2019-05-22T22:04:42.027Z,19.90
2019-05-22T22:07:11.066Z,19.90
2019-05-22T22:09:42.005Z,19.80
2019-05-22T22:12:11.772Z,19.70
2019-05-22T22:14:40.857Z,19.60
2019-05-22T22:17:12.027Z,19.70
2019-05-22T22:19:40.455Z,19.60
2019-05-22T22:22:12.876Z,19.60
2019-05-22T22:24:41.086Z,19.50
2019-05-22T22:27:11.190Z,19.40
2019-05-22T22:29:40.340Z,19.30
2019-05-22T22:32:10.944Z,19.20
2019-05-22T22:34:46.971Z,19.20
2019-05-22T22:37:17.557Z,19.20
2019-05-22T22:39:51.811Z,19.20
2019-05-22T22:42:24.335Z,19.20
2019-05-22T22:44:54.508Z,19.10
2019-05-22T22:47:27.828Z,19.10
2019-05-22T22:49:57.301Z,18.90
2019-05-22T22:52:27.176Z,19.00
2019-05-22T22:54:55.767Z,19.00
2019-05-22T22:57:24.499Z,19.00
2019-05-22T22:59:53.068Z,18.90
2019-05-22T23:02:25.529Z,19.00
2019-05-22T23:04:54.962Z,18.80
2019-05-22T23:07:26.252Z,18.90
2019-05-22T23:09:54.672Z,19.00
2019-05-22T23:12:23.585Z,18.90
2019-05-22T23:14:56.206Z,19.00
2019-05-22T23:17:24.946Z,19.10
2019-05-22T23:19:53.851Z,19.20
2019-05-22T23:22:26.676Z,19.30
2019-05-22T23:24:56.029Z,19.20
2019-05-22T23:27:24.378Z,19.20
2019-05-22T23:29:53.561Z,19.00
2019-05-22T23:32:22.301Z,19.00
2019-05-22T23:34:51.658Z,18.80
2019-05-22T23:37:20.669Z,18.90
2019-05-22T23:39:52.534Z,18.90
2019-05-22T23:42:28.053Z,18.90
2019-05-22T23:44:57.790Z,18.90
2019-05-22T23:47:26.640Z,19.00
2019-05-22T23:49:55.722Z,19.00
2019-05-22T23:52:23.862Z,19.10
2019-05-22T23:54:53.315Z,19.10
2019-05-22T23:57:23.780Z,19.10
2019-05-22T23:59:58.280Z,19.20
